Terminal Aerodrome Forecast
Issued by NWS

Home | Current Version | Previous Version | Text Only | Print | Product List | Glossary On
Versions: 1 2 3 4 5 6 7 8 9 10 11 12
000
FTUS46 KSEW 270532
TAFCLM
TAF
KCLM 270532Z 2706/2806 30006KT P6SM SKC
     FM271500 28006KT P6SM SCT020
      TEMPO 2715/2719 BKN020
     FM272300 28012KT P6SM SCT120 BKN200=

USA.gov is the U.S. government's official web portal to all federal, state and local government web resources and services.